createdAt,value
2022-11-20T00:01:49.734Z,8.77
2022-11-20T00:04:51.332Z,9.38
2022-11-20T00:07:52.703Z,9.97
2022-11-20T00:10:54.098Z,8.25
2022-11-20T00:13:58.694Z,8.97
2022-11-20T00:17:00.112Z,7.68
2022-11-20T00:20:01.617Z,9.30
2022-11-20T00:23:03.132Z,8.90
2022-11-20T00:26:09.690Z,11.70
2022-11-20T00:29:11.627Z,8.57
2022-11-20T00:32:13.001Z,8.52
2022-11-20T00:35:14.580Z,7.15
2022-11-20T00:38:15.979Z,9.45
2022-11-20T00:41:17.548Z,12.85
2022-11-20T00:44:18.926Z,10.00
2022-11-20T00:47:20.306Z,12.90
2022-11-20T00:50:21.928Z,8.82
2022-11-20T00:53:23.929Z,11.25
2022-11-20T00:56:25.416Z,9.32
2022-11-20T00:59:26.827Z,9.83
2022-11-20T01:02:28.363Z,9.80
2022-11-20T01:05:29.791Z,11.87
2022-11-20T01:08:33.135Z,9.30
2022-11-20T01:11:38.570Z,11.07
2022-11-20T01:14:40.023Z,10.68
2022-11-20T01:17:41.382Z,10.40
2022-11-20T01:20:42.803Z,9.85
2022-11-20T01:23:45.325Z,11.30
2022-11-20T01:26:49.446Z,11.15
2022-11-20T01:29:51.268Z,9.05
2022-11-20T01:32:52.695Z,9.52
2022-11-20T01:35:54.444Z,10.10
2022-11-20T01:38:58.615Z,10.95
2022-11-20T01:42:18.495Z,9.77
2022-11-20T01:45:55.625Z,10.02
2022-11-20T01:49:03.346Z,11.10
2022-11-20T01:52:12.239Z,9.77
2022-11-20T01:55:22.915Z,10.52
2022-11-20T01:58:30.745Z,10.60
2022-11-20T02:01:34.150Z,9.80
2022-11-20T02:07:37.928Z,10.65
2022-11-20T02:10:39.812Z,8.43
2022-11-20T02:13:44.070Z,8.13
2022-11-20T02:16:47.791Z,8.73
2022-11-20T02:19:49.216Z,7.95
2022-11-20T02:23:13.040Z,7.83
2022-11-20T02:26:16.924Z,9.02
2022-11-20T02:29:26.845Z,7.35
2022-11-20T02:32:31.222Z,10.80
2022-11-20T02:35:32.660Z,10.73
2022-11-20T02:38:34.030Z,8.83
2022-11-20T02:41:37.465Z,10.68
2022-11-20T02:44:38.869Z,7.85
2022-11-20T02:47:40.528Z,8.57
2022-11-20T02:50:41.962Z,8.15
2022-11-20T02:53:43.389Z,8.68
2022-11-20T02:56:44.835Z,7.27
2022-11-20T02:59:46.435Z,9.07
2022-11-20T03:02:47.818Z,7.38
2022-11-20T03:05:49.192Z,7.10
2022-11-20T03:08:50.676Z,7.53
2022-11-20T03:11:52.253Z,6.97
2022-11-20T03:14:53.655Z,9.15
2022-11-20T03:17:56.347Z,6.47
2022-11-20T03:20:59.804Z,6.97
2022-11-20T03:24:01.909Z,8.93
2022-11-20T03:27:03.308Z,7.05
2022-11-20T03:30:05.737Z,8.90
2022-11-20T03:33:07.171Z,7.88
2022-11-20T03:36:11.735Z,8.83
2022-11-20T03:39:13.211Z,8.02
2022-11-20T03:42:33.239Z,8.47
2022-11-20T03:45:34.739Z,9.13
2022-11-20T03:48:36.171Z,7.27
2022-11-20T03:51:37.629Z,8.97
2022-11-20T03:54:39.043Z,8.07
2022-11-20T03:57:40.468Z,10.35
2022-11-20T04:00:41.896Z,7.63
2022-11-20T04:03:44.289Z,10.13
2022-11-20T04:09:47.036Z,9.95
2022-11-20T04:12:48.407Z,8.87
2022-11-20T04:15:49.870Z,9.05
2022-11-20T04:18:56.228Z,9.93
2022-11-20T04:21:57.599Z,9.18
2022-11-20T04:24:58.983Z,11.32
2022-11-20T04:28:00.439Z,9.88
2022-11-20T04:31:10.782Z,11.13
2022-11-20T04:34:12.621Z,10.45
2022-11-20T04:37:14.069Z,11.27
2022-11-20T04:40:15.509Z,10.53
2022-11-20T04:43:16.923Z,14.55
2022-11-20T04:46:20.448Z,10.70
2022-11-20T04:49:22.280Z,11.60
2022-11-20T04:52:23.870Z,9.98
2022-11-20T04:55:25.280Z,13.23
2022-11-20T04:58:26.666Z,11.43
2022-11-20T05:01:28.057Z,10.82
2022-11-20T05:04:29.639Z,9.00
2022-11-20T05:07:31.079Z,9.93
2022-11-20T05:10:32.539Z,9.83
2022-11-20T05:13:34.318Z,9.20
2022-11-20T05:16:36.929Z,9.40
2022-11-20T05:22:39.598Z,10.13
2022-11-20T05:25:40.963Z,9.57
2022-11-20T05:28:42.439Z,9.63
2022-11-20T05:31:43.820Z,10.03
2022-11-20T05:34:45.189Z,10.32
2022-11-20T05:37:46.574Z,8.48
2022-11-20T05:40:47.954Z,10.20
2022-11-20T05:43:50.727Z,10.23
2022-11-20T05:46:52.270Z,8.15
2022-11-20T05:49:53.801Z,9.20
2022-11-20T05:52:55.242Z,9.30
2022-11-20T05:55:58.090Z,11.88
2022-11-20T05:58:59.618Z,8.65
2022-11-20T06:02:01.049Z,10.30
2022-11-20T06:05:02.446Z,8.10
2022-11-20T06:08:03.928Z,8.73
2022-11-20T06:11:11.768Z,8.00
2022-11-20T06:14:13.164Z,7.68
2022-11-20T06:17:14.610Z,6.65
2022-11-20T06:20:16.116Z,13.03
2022-11-20T06:23:17.562Z,10.57
2022-11-20T06:26:24.482Z,8.97
2022-11-20T06:29:28.802Z,8.30
2022-11-20T06:32:34.202Z,8.05
2022-11-20T06:35:35.845Z,7.80
2022-11-20T06:38:38.000Z,7.97
2022-11-20T06:41:39.394Z,8.15
2022-11-20T06:44:40.821Z,6.47
2022-11-20T06:47:42.226Z,6.53
2022-11-20T06:50:43.636Z,6.82
2022-11-20T06:53:45.443Z,7.17
2022-11-20T06:56:49.984Z,6.90
2022-11-20T06:59:51.493Z,6.00
2022-11-20T07:02:52.880Z,6.93
2022-11-20T07:05:58.796Z,6.53
2022-11-20T07:09:00.254Z,5.47
2022-11-20T07:12:01.719Z,6.27
2022-11-20T07:15:03.527Z,6.30
2022-11-20T07:18:04.950Z,6.10
2022-11-20T07:21:10.932Z,6.03
2022-11-20T07:24:12.393Z,5.97
2022-11-20T07:27:13.977Z,7.00
2022-11-20T07:30:16.519Z,6.65
2022-11-20T07:33:18.107Z,6.78
2022-11-20T07:36:19.564Z,7.93
2022-11-20T07:39:21.252Z,7.57
2022-11-20T07:42:23.011Z,8.15
2022-11-20T07:45:26.131Z,8.32
2022-11-20T07:48:27.790Z,10.30
2022-11-20T07:51:30.336Z,9.10
2022-11-20T07:54:31.778Z,8.98
2022-11-20T07:57:33.215Z,9.50
2022-11-20T08:00:34.695Z,10.73
2022-11-20T08:03:38.708Z,7.70
2022-11-20T08:06:40.217Z,8.40
2022-11-20T08:09:42.542Z,9.20
2022-11-20T08:16:08.030Z,8.13
2022-11-20T08:19:09.717Z,10.68
2022-11-20T08:22:11.101Z,8.18
2022-11-20T08:25:12.487Z,7.93
2022-11-20T08:28:20.688Z,11.40
2022-11-20T08:31:25.417Z,9.60
2022-11-20T08:34:26.837Z,9.65
2022-11-20T08:37:28.214Z,8.87
2022-11-20T08:40:29.705Z,10.23
2022-11-20T08:43:31.197Z,9.10
2022-11-20T08:46:36.329Z,10.20
2022-11-20T08:49:37.807Z,10.02
2022-11-20T08:52:40.031Z,10.90
2022-11-20T08:59:10.330Z,11.13
2022-11-20T09:02:04.426Z,10.23
2022-11-20T09:05:06.209Z,12.10
2022-11-20T09:08:07.720Z,9.88
2022-11-20T09:11:09.300Z,10.60
2022-11-20T09:14:10.755Z,10.47
2022-11-20T09:17:14.551Z,9.07
2022-11-20T09:20:17.086Z,9.73
2022-11-20T09:23:18.988Z,8.90
2022-11-20T09:26:20.466Z,10.40
2022-11-20T09:29:22.576Z,8.15
2022-11-20T09:32:24.283Z,7.65
2022-11-20T09:35:25.716Z,11.02
2022-11-20T09:38:27.147Z,10.52
2022-11-20T09:41:48.731Z,8.80
2022-11-20T09:45:16.996Z,10.27
2022-11-20T09:48:57.444Z,10.52
2022-11-20T09:52:27.555Z,8.88
2022-11-20T09:55:31.770Z,9.85
2022-11-20T09:58:42.769Z,11.23
2022-11-20T10:01:45.621Z,14.80
2022-11-20T10:05:09.028Z,13.45
2022-11-20T10:08:24.956Z,12.43
2022-11-20T10:11:55.975Z,9.63
2022-11-20T10:15:06.523Z,10.57
2022-11-20T10:18:28.203Z,8.68
2022-11-20T10:21:48.121Z,9.05
2022-11-20T10:25:20.789Z,10.18
2022-11-20T10:28:40.271Z,9.25
2022-11-20T10:31:45.490Z,10.50
2022-11-20T10:35:06.048Z,11.13
2022-11-20T10:38:54.603Z,12.77
2022-11-20T10:41:57.554Z,9.82
2022-11-20T10:45:12.383Z,8.10
2022-11-20T10:48:33.116Z,8.82
2022-11-20T10:51:56.098Z,10.70
2022-11-20T10:55:26.525Z,9.00
2022-11-20T10:58:30.960Z,11.65
2022-11-20T11:01:32.440Z,15.93
2022-11-20T11:04:43.654Z,14.90
2022-11-20T11:07:46.953Z,9.73
2022-11-20T11:10:57.346Z,7.10
2022-11-20T11:14:13.260Z,6.82
2022-11-20T11:17:32.837Z,9.40
2022-11-20T11:20:34.422Z,10.55
2022-11-20T11:23:39.849Z,7.30
2022-11-20T11:27:00.178Z,5.38
2022-11-20T11:30:14.945Z,9.93
2022-11-20T11:33:25.159Z,8.63
2022-11-20T11:36:26.604Z,6.18
2022-11-20T11:39:31.383Z,7.40
2022-11-20T11:42:33.067Z,6.80
2022-11-20T11:45:34.500Z,5.53
2022-11-20T11:48:35.910Z,6.37
2022-11-20T11:51:47.815Z,7.63
2022-11-20T11:54:57.765Z,8.02
2022-11-20T11:58:15.109Z,8.60
2022-11-20T12:01:45.738Z,6.88
2022-11-20T12:05:14.288Z,7.18
2022-11-20T12:08:28.545Z,7.80
2022-11-20T12:11:55.386Z,6.65
2022-11-20T12:14:58.009Z,6.18
2022-11-20T12:17:59.598Z,8.15
2022-11-20T12:21:29.027Z,9.35
2022-11-20T12:24:38.717Z,5.97
2022-11-20T12:28:17.490Z,7.57
2022-11-20T12:31:34.681Z,4.75
2022-11-20T12:34:41.463Z,6.30
2022-11-20T12:37:55.615Z,4.10
2022-11-20T12:41:40.191Z,7.57
2022-11-20T12:45:10.611Z,6.53
2022-11-20T12:48:35.944Z,5.65
2022-11-20T12:51:58.851Z,6.20
2022-11-20T12:55:29.495Z,6.50
2022-11-20T12:58:45.606Z,4.72
2022-11-20T13:01:56.773Z,6.82
2022-11-20T13:05:43.354Z,5.90
2022-11-20T13:08:56.869Z,9.20
2022-11-20T13:12:27.185Z,6.30
2022-11-20T13:15:37.563Z,4.55
2022-11-20T13:18:42.554Z,6.35
2022-11-20T13:21:52.444Z,7.43
2022-11-20T13:24:54.003Z,5.90
2022-11-20T13:27:58.068Z,4.83
2022-11-20T13:31:00.162Z,11.00
2022-11-20T13:34:05.874Z,5.60
2022-11-20T13:37:29.520Z,7.05
2022-11-20T13:40:31.024Z,7.63
2022-11-20T13:43:36.057Z,8.13
2022-11-20T13:46:43.723Z,8.57
2022-11-20T13:49:45.918Z,8.48
2022-11-20T13:53:09.227Z,6.32
2022-11-20T13:56:28.012Z,5.68
2022-11-20T13:59:48.429Z,5.72
2022-11-20T14:03:17.254Z,6.35
2022-11-20T14:06:41.516Z,5.75
2022-11-20T14:09:54.415Z,4.85
2022-11-20T14:12:56.476Z,7.45
2022-11-20T14:15:59.061Z,10.20
2022-11-20T14:19:20.385Z,4.00
2022-11-20T14:22:27.314Z,4.82
2022-11-20T14:25:28.929Z,6.88
2022-11-20T14:28:31.788Z,7.03
2022-11-20T14:31:33.367Z,5.78
2022-11-20T14:34:39.977Z,6.18
2022-11-20T14:37:42.138Z,5.10
2022-11-20T14:40:44.360Z,7.05
2022-11-20T14:43:48.639Z,7.45
2022-11-20T14:46:52.179Z,7.57
2022-11-20T14:49:55.782Z,7.90
2022-11-20T14:52:59.751Z,8.90
2022-11-20T14:56:02.911Z,9.18
2022-11-20T14:59:04.488Z,8.35
2022-11-20T15:02:13.741Z,11.75
2022-11-20T15:05:16.553Z,7.63
2022-11-20T15:08:18.521Z,10.00
2022-11-20T15:11:34.331Z,11.60
2022-11-20T15:14:37.533Z,7.25
2022-11-20T15:17:40.960Z,9.20
2022-11-20T15:20:43.522Z,9.00
2022-11-20T15:23:45.349Z,9.45
2022-11-20T15:26:46.847Z,6.68
2022-11-20T15:29:48.365Z,7.80
2022-11-20T15:32:49.940Z,7.00
2022-11-20T15:35:51.450Z,6.30
2022-11-20T15:38:53.089Z,7.40
2022-11-20T15:41:54.547Z,7.43
2022-11-20T15:44:56.128Z,10.70
2022-11-20T15:47:57.679Z,7.80
2022-11-20T15:51:27.523Z,8.60
2022-11-20T15:54:29.046Z,7.57
2022-11-20T15:57:30.521Z,9.43
2022-11-20T16:00:32.062Z,8.93
2022-11-20T16:03:33.794Z,10.00
2022-11-20T16:06:35.236Z,8.77
2022-11-20T16:09:36.783Z,6.70
2022-11-20T16:12:57.036Z,7.60
2022-11-20T16:16:00.448Z,6.80
2022-11-20T16:19:02.219Z,8.68
2022-11-20T16:22:04.202Z,8.18
2022-11-20T16:25:06.139Z,8.50
2022-11-20T16:28:07.704Z,6.60
2022-11-20T16:31:14.468Z,7.95
2022-11-20T16:34:17.423Z,7.97
2022-11-20T16:37:18.845Z,7.28
2022-11-20T16:40:20.389Z,7.73
2022-11-20T16:43:21.828Z,10.00
2022-11-20T16:46:24.990Z,10.20
2022-11-20T16:49:26.456Z,9.15
2022-11-20T16:52:28.371Z,7.40
2022-11-20T16:55:29.783Z,11.13
2022-11-20T16:58:31.233Z,6.82
2022-11-20T17:01:32.933Z,7.38
2022-11-20T17:04:34.536Z,9.10
2022-11-20T17:07:37.816Z,9.87
2022-11-20T17:10:39.289Z,8.68
2022-11-20T17:13:40.929Z,14.40
2022-11-20T17:16:42.938Z,15.80
2022-11-20T17:19:44.387Z,9.20
2022-11-20T17:22:46.029Z,8.30
2022-11-20T17:25:47.431Z,8.07
2022-11-20T17:29:01.144Z,10.38
2022-11-20T17:32:02.858Z,10.20
2022-11-20T17:35:04.570Z,9.90
2022-11-20T17:38:06.034Z,8.48
2022-11-20T17:41:08.803Z,7.80
2022-11-20T17:44:12.499Z,10.57
2022-11-20T17:47:14.000Z,6.53
2022-11-20T17:50:15.513Z,8.50
2022-11-20T17:53:17.093Z,6.77
2022-11-20T17:56:37.695Z,5.57
2022-11-20T17:59:39.109Z,6.88
2022-11-20T18:02:40.574Z,6.57
2022-11-20T18:05:42.061Z,9.00
2022-11-20T18:08:43.821Z,13.03
2022-11-20T18:11:45.488Z,16.48
2022-11-20T18:14:47.177Z,16.90
2022-11-20T18:17:48.759Z,15.52
2022-11-20T18:20:53.585Z,13.47
2022-11-20T18:23:56.086Z,17.50
2022-11-20T18:26:58.806Z,22.58
2022-11-20T18:30:00.187Z,18.77
2022-11-20T18:33:01.780Z,16.87
2022-11-20T18:36:21.835Z,23.17
2022-11-20T18:39:24.122Z,16.90
2022-11-20T18:45:45.783Z,10.75
2022-11-20T18:48:47.299Z,20.83
2022-11-20T18:51:48.786Z,13.50
2022-11-20T18:54:50.708Z,6.28
2022-11-20T18:57:52.541Z,6.57
2022-11-20T19:00:53.945Z,7.07
2022-11-20T19:03:55.613Z,5.57
2022-11-20T19:06:57.096Z,6.30
2022-11-20T19:10:03.292Z,7.47
2022-11-20T19:13:05.231Z,6.18
2022-11-20T19:16:09.591Z,7.15
2022-11-20T19:19:11.901Z,5.95
2022-11-20T19:25:14.828Z,7.20
2022-11-20T19:28:16.392Z,4.77
2022-11-20T19:31:26.329Z,6.23
2022-11-20T19:34:27.730Z,6.80
2022-11-20T19:37:29.208Z,6.23
2022-11-20T19:40:30.792Z,5.83
2022-11-20T19:43:32.488Z,5.40
2022-11-20T19:46:35.647Z,6.88
2022-11-20T19:49:37.339Z,6.22
2022-11-20T19:52:38.747Z,6.00
2022-11-20T19:55:40.143Z,6.88
2022-11-20T19:58:42.090Z,9.25
2022-11-20T20:01:43.637Z,5.43
2022-11-20T20:04:46.861Z,5.83
2022-11-20T20:07:48.263Z,9.00
2022-11-20T20:10:49.652Z,7.07
2022-11-20T20:13:51.441Z,6.22
2022-11-20T20:16:52.873Z,6.80
2022-11-20T20:19:54.379Z,7.27
2022-11-20T20:22:55.847Z,7.10
2022-11-20T20:25:57.343Z,6.87
2022-11-20T20:29:00.698Z,9.23
2022-11-20T20:32:02.328Z,6.07
2022-11-20T20:35:05.308Z,7.45
2022-11-20T20:38:06.756Z,6.50
2022-11-20T20:41:08.433Z,6.17
2022-11-20T20:44:28.395Z,6.55
2022-11-20T20:47:31.625Z,6.95
2022-11-20T20:50:33.115Z,5.90
2022-11-20T20:53:34.524Z,5.53
2022-11-20T20:56:35.977Z,5.75
2022-11-20T20:59:37.418Z,5.63
2022-11-20T21:02:38.840Z,6.05
2022-11-20T21:05:40.272Z,5.25
2022-11-20T21:08:44.244Z,5.33
2022-11-20T21:11:46.148Z,5.40
2022-11-20T21:14:47.636Z,4.47
2022-11-20T21:17:49.103Z,6.57
2022-11-20T21:21:09.649Z,9.43
2022-11-20T21:24:11.064Z,7.57
2022-11-20T21:27:12.481Z,5.33
2022-11-20T21:30:14.058Z,5.80
2022-11-20T21:33:15.470Z,9.90
2022-11-20T21:36:19.603Z,4.43
2022-11-20T21:39:21.880Z,7.43
2022-11-20T21:45:24.630Z,8.80
2022-11-20T21:48:29.819Z,4.70
2022-11-20T21:51:31.369Z,8.07
2022-11-20T21:54:35.630Z,6.57
2022-11-20T21:57:37.031Z,7.90
2022-11-20T22:00:38.407Z,6.90
2022-11-20T22:03:40.481Z,6.32
2022-11-20T22:06:42.176Z,7.28
2022-11-20T22:09:44.020Z,7.70
2022-11-20T22:12:45.389Z,5.90
2022-11-20T22:16:00.253Z,6.75
2022-11-20T22:19:03.229Z,13.50
2022-11-20T22:22:04.617Z,7.20
2022-11-20T22:25:06.281Z,7.85
2022-11-20T22:28:07.653Z,7.70
2022-11-20T22:31:11.080Z,6.40
2022-11-20T22:34:13.235Z,8.52
2022-11-20T22:37:14.731Z,5.53
2022-11-20T22:40:16.460Z,5.00
2022-11-20T22:43:17.891Z,8.55
2022-11-20T22:46:19.971Z,5.23
2022-11-20T22:49:21.591Z,5.30
2022-11-20T22:52:22.991Z,4.68
2022-11-20T22:55:24.385Z,4.45
2022-11-20T22:58:31.261Z,4.28
2022-11-20T23:01:34.807Z,4.65
2022-11-20T23:04:36.186Z,3.95
2022-11-20T23:07:40.982Z,3.92
2022-11-20T23:10:42.701Z,5.70
2022-11-20T23:13:44.996Z,5.30
2022-11-20T23:16:46.412Z,4.35
2022-11-20T23:19:47.795Z,5.60
2022-11-20T23:22:49.326Z,3.77
2022-11-20T23:25:50.719Z,5.38
2022-11-20T23:28:54.293Z,4.40
2022-11-20T23:31:55.711Z,5.30
2022-11-20T23:34:57.107Z,5.35
2022-11-20T23:37:58.496Z,5.00
2022-11-20T23:41:00.208Z,4.50
2022-11-20T23:44:01.591Z,6.65
2022-11-20T23:47:03.017Z,4.82
2022-11-20T23:50:04.738Z,4.78
2022-11-20T23:53:06.731Z,4.32
2022-11-20T23:56:08.154Z,7.05
2022-11-20T23:59:09.718Z,6.00
